createdAt,value
2023-04-10T00:03:11.835Z,2.23
2023-04-10T00:08:17.640Z,2.29
2023-04-10T00:13:21.695Z,2.34
2023-04-10T00:18:25.526Z,2.31
2023-04-10T00:23:32.143Z,2.31
2023-04-10T00:28:54.957Z,2.13
2023-04-10T00:33:58.849Z,2.14
2023-04-10T00:39:02.552Z,2.16
2023-04-10T00:44:06.121Z,2.22
2023-04-10T00:49:10.239Z,2.04
2023-04-10T00:54:14.655Z,1.94
2023-04-10T00:59:19.235Z,1.86
2023-04-10T01:04:26.977Z,1.89
2023-04-10T01:09:39.930Z,2.07
2023-04-10T01:14:55.509Z,2.19
2023-04-10T01:20:11.076Z,2.43
2023-04-10T01:25:31.874Z,2.17
2023-04-10T01:30:38.095Z,2.15
2023-04-10T01:35:44.541Z,2.20
2023-04-10T01:40:52.994Z,2.62
2023-04-10T01:46:07.763Z,2.64
2023-04-10T01:51:12.374Z,2.69
2023-04-10T01:56:17.547Z,2.38
2023-04-10T02:01:29.851Z,2.18
2023-04-10T02:06:37.336Z,2.03
2023-04-10T02:11:52.326Z,1.86
2023-04-10T02:16:58.011Z,1.93
2023-04-10T02:22:02.909Z,1.88
2023-04-10T02:27:06.753Z,1.99
2023-04-10T02:32:10.994Z,2.31
2023-04-10T02:37:17.125Z,2.53
2023-04-10T02:42:21.224Z,2.39
2023-04-10T02:47:26.459Z,2.50
2023-04-10T02:52:30.828Z,2.61
2023-04-10T02:57:35.780Z,2.62
2023-04-10T03:02:39.674Z,2.46
2023-04-10T03:07:52.246Z,2.38
2023-04-10T03:12:56.241Z,2.39
2023-04-10T03:18:03.806Z,2.27
2023-04-10T03:23:08.070Z,2.31
2023-04-10T03:28:11.872Z,2.29
2023-04-10T03:33:16.022Z,2.26
2023-04-10T03:38:19.807Z,2.24
2023-04-10T03:43:23.436Z,2.31
2023-04-10T03:48:30.778Z,2.37
2023-04-10T03:53:36.493Z,2.17
2023-04-10T03:58:45.218Z,2.21
2023-04-10T04:03:50.890Z,2.35
2023-04-10T04:09:24.375Z,2.49
2023-04-10T04:14:54.285Z,2.46
2023-04-10T04:20:00.974Z,2.56
2023-04-10T04:25:26.366Z,2.65
2023-04-10T04:30:39.024Z,2.79
2023-04-10T04:36:15.863Z,2.95
2023-04-10T04:41:20.749Z,2.88
2023-04-10T04:46:44.707Z,2.71
2023-04-10T04:52:06.960Z,2.63
2023-04-10T04:57:23.780Z,2.54
2023-04-10T05:02:42.684Z,2.50
2023-04-10T05:08:25.736Z,2.55
2023-04-10T05:14:01.536Z,2.69
2023-04-10T05:19:31.809Z,3.01
2023-04-10T05:25:01.792Z,3.24
2023-04-10T05:30:15.812Z,3.42
2023-04-10T05:35:39.472Z,3.63
2023-04-10T05:40:59.293Z,3.96
2023-04-10T05:46:26.178Z,4.55
2023-04-10T05:51:50.900Z,5.15
2023-04-10T05:57:02.207Z,6.05
2023-04-10T06:02:36.254Z,7.02
2023-04-10T06:07:43.551Z,7.86
2023-04-10T06:12:48.045Z,8.37
2023-04-10T06:17:54.382Z,11.37
2023-04-10T06:23:00.020Z,13.01
2023-04-10T06:28:04.191Z,12.69
2023-04-10T06:33:07.947Z,11.50
2023-04-10T06:38:16.907Z,13.04
2023-04-10T06:43:21.637Z,13.48
2023-04-10T06:48:26.431Z,14.47
2023-04-10T06:53:30.360Z,13.61
2023-04-10T06:58:34.614Z,14.11
2023-04-10T07:03:38.961Z,14.70
2023-04-10T07:08:42.820Z,14.66
2023-04-10T07:13:46.674Z,14.49
2023-04-10T07:18:50.351Z,14.57
2023-04-10T07:23:54.679Z,15.04
2023-04-10T07:28:58.809Z,16.45
2023-04-10T07:34:03.460Z,15.55
2023-04-10T07:39:06.727Z,16.10
2023-04-10T07:44:10.871Z,15.22
2023-04-10T07:49:14.525Z,14.43
2023-04-10T07:54:17.694Z,14.14
2023-04-10T07:59:21.806Z,14.05
2023-04-10T08:04:25.903Z,13.64
2023-04-10T08:09:29.634Z,12.25
2023-04-10T08:14:32.773Z,11.43
2023-04-10T08:19:36.446Z,11.27
2023-04-10T08:24:39.767Z,10.77
2023-04-10T08:29:44.309Z,11.29
2023-04-10T08:34:47.456Z,11.18
2023-04-10T08:39:52.264Z,10.35
2023-04-10T08:44:55.917Z,12.58
2023-04-10T08:50:04.317Z,12.57
2023-04-10T08:55:09.826Z,13.55
2023-04-10T09:00:23.046Z,13.59
2023-04-10T09:05:30.598Z,15.66
2023-04-10T09:10:34.785Z,15.76
2023-04-10T09:16:00.649Z,16.78
2023-04-10T09:21:09.410Z,14.05
2023-04-10T09:26:26.136Z,15.45
2023-04-10T09:31:30.220Z,16.48
2023-04-10T09:36:33.507Z,14.61
2023-04-10T09:41:56.334Z,14.89
2023-04-10T09:47:15.654Z,14.60
2023-04-10T09:52:27.424Z,14.09
2023-04-10T09:57:33.409Z,13.28
2023-04-10T10:02:42.706Z,13.64
2023-04-10T10:07:47.318Z,13.42
2023-04-10T10:12:55.707Z,12.43
2023-04-10T10:18:27.424Z,12.62
2023-04-10T10:23:34.553Z,12.30
2023-04-10T10:28:39.722Z,12.51
2023-04-10T10:33:44.571Z,14.37
2023-04-10T10:39:23.258Z,14.40
2023-04-10T10:44:51.794Z,16.04
2023-04-10T10:50:03.272Z,15.77
2023-04-10T10:55:28.736Z,15.40
2023-04-10T11:00:53.625Z,15.72
2023-04-10T11:06:07.457Z,16.42
2023-04-10T11:11:19.156Z,16.43
2023-04-10T11:16:42.185Z,17.27
2023-04-10T11:22:05.908Z,16.49
2023-04-10T11:27:10.100Z,16.20
2023-04-10T11:32:13.786Z,15.28
2023-04-10T11:37:24.375Z,14.65
2023-04-10T11:42:28.008Z,14.12
2023-04-10T11:47:31.407Z,14.40
2023-04-10T11:52:34.616Z,15.61
2023-04-10T11:57:38.080Z,14.65
2023-04-10T12:02:53.376Z,14.17
2023-04-10T12:07:57.303Z,13.32
2023-04-10T12:13:01.694Z,13.25
2023-04-10T12:18:05.473Z,13.06
2023-04-10T12:23:09.919Z,12.71
2023-04-10T12:28:18.973Z,14.44
2023-04-10T12:33:24.535Z,15.91
2023-04-10T12:38:38.327Z,17.65
2023-04-10T12:43:45.045Z,17.66
2023-04-10T12:48:48.681Z,18.05
2023-04-10T12:53:53.276Z,18.95
2023-04-10T12:59:07.983Z,19.19
2023-04-10T13:04:11.744Z,18.68
2023-04-10T13:09:16.645Z,19.91
2023-04-10T13:14:20.517Z,19.69
2023-04-10T13:19:23.740Z,20.53
2023-04-10T13:24:27.031Z,20.19
2023-04-10T13:29:30.826Z,19.48
2023-04-10T13:34:36.963Z,18.74
2023-04-10T13:39:40.722Z,17.00
2023-04-10T13:44:44.148Z,16.64
2023-04-10T13:49:47.918Z,17.86
2023-04-10T13:54:51.026Z,17.95
2023-04-10T13:59:54.861Z,17.80
2023-04-10T14:04:58.102Z,17.69
2023-04-10T14:10:02.010Z,15.22
2023-04-10T14:15:05.634Z,13.81
2023-04-10T14:20:11.805Z,12.90
2023-04-10T14:25:18.348Z,13.12
2023-04-10T14:30:22.200Z,15.72
2023-04-10T14:35:25.822Z,15.12
2023-04-10T14:40:29.900Z,13.77
2023-04-10T14:45:34.595Z,14.98
2023-04-10T14:50:38.650Z,16.39
2023-04-10T14:55:42.608Z,16.02
2023-04-10T15:00:46.081Z,15.95
2023-04-10T15:05:49.697Z,15.05
2023-04-10T15:10:53.998Z,15.81
2023-04-10T15:15:58.061Z,16.41
2023-04-10T15:21:01.285Z,16.36
2023-04-10T15:26:04.983Z,16.71
2023-04-10T15:31:08.924Z,15.40
2023-04-10T15:36:12.935Z,15.88
2023-04-10T15:41:16.692Z,15.25
2023-04-10T15:46:21.024Z,15.92
2023-04-10T15:51:24.503Z,16.25
2023-04-10T15:56:27.803Z,15.90
2023-04-10T16:01:31.909Z,15.10
2023-04-10T16:06:35.660Z,14.23
2023-04-10T16:11:39.926Z,14.75
2023-04-10T16:16:43.016Z,14.21
2023-04-10T16:21:46.600Z,12.83
2023-04-10T16:26:50.232Z,12.31
2023-04-10T16:31:54.614Z,11.72
2023-04-10T16:36:57.973Z,11.48
2023-04-10T16:42:03.706Z,10.46
2023-04-10T16:47:09.018Z,9.93
2023-04-10T16:52:15.720Z,9.62
2023-04-10T16:57:19.860Z,9.40
2023-04-10T17:02:25.306Z,9.19
2023-04-10T17:07:29.260Z,9.07
2023-04-10T17:12:33.506Z,8.27
2023-04-10T17:17:36.945Z,7.95
2023-04-10T17:22:41.982Z,7.54
2023-04-10T17:27:45.247Z,7.74
2023-04-10T17:32:49.678Z,7.88
2023-04-10T17:37:54.060Z,7.86
2023-04-10T17:42:57.831Z,7.51
2023-04-10T17:48:01.374Z,7.20
2023-04-10T17:53:06.007Z,6.91
2023-04-10T17:58:09.154Z,7.14
2023-04-10T18:03:13.446Z,6.94
2023-04-10T18:08:17.132Z,6.46
2023-04-10T18:13:21.174Z,6.17
2023-04-10T18:18:24.620Z,5.87
2023-04-10T18:23:28.610Z,5.56
2023-04-10T18:28:32.623Z,5.51
2023-04-10T18:33:36.346Z,5.63
2023-04-10T18:38:42.968Z,5.29
2023-04-10T18:43:51.276Z,5.26
2023-04-10T18:49:04.884Z,5.34
2023-04-10T18:54:09.043Z,4.92
2023-04-10T18:59:12.993Z,4.79
2023-04-10T19:04:16.364Z,4.81
2023-04-10T19:09:19.813Z,4.78
2023-04-10T19:14:23.066Z,4.59
2023-04-10T19:19:27.023Z,4.83
2023-04-10T19:24:33.374Z,4.63
2023-04-10T19:29:37.208Z,4.84
2023-04-10T19:34:41.279Z,4.48
2023-04-10T19:39:45.365Z,4.32
2023-04-10T19:44:53.693Z,4.20
2023-04-10T19:50:02.464Z,4.04
2023-04-10T19:55:06.872Z,4.17
2023-04-10T20:00:11.499Z,4.09
2023-04-10T20:05:18.641Z,4.30
2023-04-10T20:10:22.485Z,4.28
2023-04-10T20:15:26.491Z,4.13
2023-04-10T20:20:30.027Z,3.92
2023-04-10T20:25:33.817Z,3.81
2023-04-10T20:30:40.786Z,3.67
2023-04-10T20:35:44.118Z,3.49
2023-04-10T20:40:48.244Z,3.33
2023-04-10T20:45:51.819Z,3.15
2023-04-10T20:50:55.356Z,3.00
2023-04-10T20:55:59.359Z,2.95
2023-04-10T21:01:03.637Z,3.15
2023-04-10T21:06:07.422Z,2.99
2023-04-10T21:11:12.622Z,2.91
2023-04-10T21:16:15.797Z,2.79
2023-04-10T21:21:20.652Z,2.62
2023-04-10T21:26:24.283Z,2.65
2023-04-10T21:31:28.290Z,2.87
2023-04-10T21:36:32.825Z,2.76
2023-04-10T21:41:40.078Z,2.56
2023-04-10T21:46:45.419Z,2.51
2023-04-10T21:51:48.680Z,2.84
2023-04-10T21:56:52.828Z,3.10
2023-04-10T22:01:56.787Z,3.21
2023-04-10T22:07:00.765Z,3.37
2023-04-10T22:12:05.015Z,3.09
2023-04-10T22:17:09.403Z,3.01
2023-04-10T22:22:13.444Z,2.99
2023-04-10T22:27:16.868Z,2.89
2023-04-10T22:32:21.035Z,2.80
2023-04-10T22:37:24.801Z,2.54
2023-04-10T22:42:30.519Z,2.29
2023-04-10T22:47:35.434Z,2.14
2023-04-10T22:52:38.837Z,2.12
2023-04-10T22:57:42.160Z,2.03
2023-04-10T23:02:45.845Z,2.06
2023-04-10T23:07:49.950Z,2.51
2023-04-10T23:12:53.012Z,2.79
2023-04-10T23:17:56.353Z,2.74
2023-04-10T23:23:00.143Z,2.70
2023-04-10T23:28:04.734Z,2.98
2023-04-10T23:33:08.315Z,3.40
2023-04-10T23:38:11.753Z,3.20
2023-04-10T23:43:15.547Z,3.07
2023-04-10T23:48:19.146Z,3.30
2023-04-10T23:53:22.412Z,3.37
2023-04-10T23:58:26.254Z,3.36
